Time;durP1;ratioP1;P1;durP2;ratioP2;P2;SDS_P1;SDS_P2;PMS_P1;PMS_P2;Temp;Humidity;BMP_temperature;BMP_pressure;BME280_temperature;BME280_humidity;BME280_pressure;Samples;Min_cycle;Max_cycle;Signal;HPM_P1;HPM_P2
2023/02/19 00:09:22;;;;;;;7.00;3.00;;;;;;;;;;21081287;28;19919;-66
2023/02/19 00:19:24;;;;;;;12.32;3.65;;;;;;;;;;21079291;28;20052;-71
2023/02/19 00:29:25;;;;;;;11.55;3.13;;;;;;;;;;21078715;28;20047;-69
2023/02/19 00:39:27;;;;;;;8.30;3.38;;;;;;;;;;21079368;28;20048;-67
2023/02/19 00:49:29;;;;;;;6.38;3.72;;;;;;;;;;21079124;28;20435;-69
2023/02/19 00:59:31;;;;;;;11.75;3.28;;;;;;;;;;21079679;28;20103;-70
2023/02/19 01:09:33;;;;;;;11.32;3.70;;;;;;;;;;21084323;28;20051;-69
2023/02/19 01:19:35;;;;;;;8.57;3.55;;;;;;;;;;21075583;28;20109;-70
2023/02/19 01:29:37;;;;;;;9.63;3.20;;;;;;;;;;21077079;28;20048;-68
2023/02/19 01:39:39;;;;;;;10.68;3.17;;;;;;;;;;21092757;28;20052;-71
2023/02/19 01:49:47;;;;;;;11.40;3.58;;;;;;;;;;21091703;28;20398;-71
2023/02/19 01:59:53;;;;;;;10.93;3.05;;;;;;;;;;21090969;28;20079;-70
2023/02/19 02:20:41;;;;;;;10.05;3.33;;;;;;;;;;21089687;28;20474;-68
2023/02/19 02:30:54;;;;;;;12.88;3.35;;;;;;;;;;20749213;28;20085;-70
2023/02/19 02:41:00;;;;;;;8.65;4.10;;;;;;;;;;20747309;28;20539;-69
2023/02/19 02:51:18;;;;;;;14.05;3.55;;;;;;;;;;20747046;28;20046;-66
2023/02/19 03:22:44;;;;;;;9.32;2.97;;;;;;;;;;20999928;28;20058;-71
2023/02/19 03:33:07;;;;;;;10.73;3.85;;;;;;;;;;20997909;28;20045;-70
2023/02/19 03:43:19;;;;;;;8.18;3.15;;;;;;;;;;21047098;28;20056;-69
2023/02/19 03:53:32;;;;;;;11.02;2.92;;;;;;;;;;21063328;28;20044;-71
2023/02/19 04:03:40;;;;;;;9.38;3.28;;;;;;;;;;21081658;28;20084;-69
2023/02/19 04:13:54;;;;;;;13.63;3.83;;;;;;;;;;21081036;28;20505;-69
2023/02/19 04:24:02;;;;;;;8.27;3.05;;;;;;;;;;21080336;28;20056;-70
2023/02/19 04:34:04;;;;;;;10.55;3.20;;;;;;;;;;21078605;28;20048;-70
2023/02/19 04:44:07;;;;;;;13.25;3.60;;;;;;;;;;21086780;28;20087;-68
2023/02/19 04:54:21;;;;;;;6.28;2.90;;;;;;;;;;21096375;28;20076;-71
2023/02/19 05:04:24;;;;;;;8.68;3.13;;;;;;;;;;21095528;28;20052;-70
2023/02/19 05:14:27;;;;;;;10.10;4.03;;;;;;;;;;21094544;28;20040;-70
2023/02/19 05:24:30;;;;;;;9.65;3.50;;;;;;;;;;21093644;28;20131;-70
2023/02/19 05:34:34;;;;;;;10.90;3.38;;;;;;;;;;21091326;28;20059;-69
2023/02/19 05:44:36;;;;;;;12.80;3.85;;;;;;;;;;21029970;28;20485;-67
2023/02/19 05:54:39;;;;;;;12.85;4.28;;;;;;;;;;21005597;28;20048;-70
2023/02/19 06:04:42;;;;;;;10.25;3.60;;;;;;;;;;21012085;28;20102;-68
2023/02/19 06:14:45;;;;;;;11.32;3.97;;;;;;;;;;21009582;28;20479;-65
2023/02/19 06:24:47;;;;;;;8.52;4.00;;;;;;;;;;21004095;28;20064;-65
2023/02/19 06:34:50;;;;;;;7.82;3.88;;;;;;;;;;21003148;28;20055;-66
2023/02/19 06:44:52;;;;;;;9.30;4.55;;;;;;;;;;21064808;28;20098;-69
2023/02/19 06:54:54;;;;;;;10.15;3.92;;;;;;;;;;21086056;28;20050;-69
2023/02/19 07:04:56;;;;;;;12.90;3.70;;;;;;;;;;21083786;28;20059;-64
2023/02/19 07:14:58;;;;;;;11.23;3.85;;;;;;;;;;21065758;28;20504;-70
2023/02/19 07:25:00;;;;;;;12.60;3.90;;;;;;;;;;21082883;28;20048;-68
2023/02/19 07:35:02;;;;;;;9.43;3.83;;;;;;;;;;21083333;28;20481;-70
2023/02/19 07:45:05;;;;;;;21.15;5.53;;;;;;;;;;21017275;28;20059;-69
2023/02/19 07:55:07;;;;;;;9.27;4.18;;;;;;;;;;20998877;28;20406;-69
2023/02/19 08:05:09;;;;;;;11.55;4.32;;;;;;;;;;20997751;28;20082;-70
2023/02/19 08:15:12;;;;;;;13.05;4.22;;;;;;;;;;20996763;28;20119;-70
2023/02/19 08:25:14;;;;;;;12.88;4.55;;;;;;;;;;20996468;28;20387;-68
2023/02/19 08:35:16;;;;;;;40.38;6.03;;;;;;;;;;20994507;28;20052;-70
2023/02/19 08:45:19;;;;;;;17.30;5.10;;;;;;;;;;21060674;28;20129;-67
2023/02/19 08:55:22;;;;;;;14.50;4.90;;;;;;;;;;21078200;28;20044;-69
2023/02/19 09:05:24;;;;;;;10.90;3.95;;;;;;;;;;21077121;28;20052;-70
2023/02/19 09:15:28;;;;;;;8.95;4.10;;;;;;;;;;21078627;28;20101;-71
2023/02/19 09:25:30;;;;;;;8.85;3.00;;;;;;;;;;21077997;28;20048;-71
2023/02/19 09:35:32;;;;;;;12.45;2.20;;;;;;;;;;21091807;28;20044;-70
2023/02/19 09:45:36;;;;;;;7.30;1.60;;;;;;;;;;21091143;28;20158;-70
2023/02/19 09:55:43;;;;;;;13.98;2.00;;;;;;;;;;21091277;28;20098;-71
2023/02/19 10:05:47;;;;;;;5.30;1.33;;;;;;;;;;21090132;28;20047;-70
2023/02/19 10:15:53;;;;;;;8.38;1.95;;;;;;;;;;21089732;28;20044;-70
2023/02/19 10:25:57;;;;;;;5.53;1.88;;;;;;;;;;21090553;28;20422;-69
2023/02/19 10:36:00;;;;;;;6.97;1.65;;;;;;;;;;21088107;28;20478;-70
2023/02/19 10:46:16;;;;;;;9.82;1.95;;;;;;;;;;21086279;28;20109;-72
2023/02/19 10:56:27;;;;;;;6.85;1.58;;;;;;;;;;21086123;28;20073;-70
2023/02/19 11:06:29;;;;;;;7.07;2.10;;;;;;;;;;21084886;28;20055;-72
2023/02/19 11:16:39;;;;;;;9.60;2.38;;;;;;;;;;21084447;28;20063;-69
2023/02/19 11:26:41;;;;;;;;;;;;;;;;;;21085891;28;20391;-71
2023/02/19 11:36:43;;;;;;;8.52;2.55;;;;;;;;;;21083747;28;20062;-69
2023/02/19 11:46:45;;;;;;;5.07;1.60;;;;;;;;;;21081277;28;20525;-66
2023/02/19 11:56:51;;;;;;;6.28;1.55;;;;;;;;;;21081147;28;20067;-64
2023/02/19 12:06:53;;;;;;;6.97;1.45;;;;;;;;;;21081046;28;20481;-71
2023/02/19 12:17:13;;;;;;;4.07;1.60;;;;;;;;;;21079622;28;20055;-70
2023/02/19 12:27:42;;;;;;;10.27;2.00;;;;;;;;;;21079938;28;20450;-69
2023/02/19 12:37:51;;;;;;;5.38;1.90;;;;;;;;;;20738935;28;20062;-69
2023/02/19 12:48:00;;;;;;;7.55;1.73;;;;;;;;;;20738535;28;20526;-68
2023/02/19 12:58:03;;;;;;;7.37;1.97;;;;;;;;;;20738096;28;20050;-65
2023/02/19 13:08:24;;;;;;;5.85;1.58;;;;;;;;;;20811695;28;20054;-70
2023/02/19 13:18:28;;;;;;;7.72;1.55;;;;;;;;;;21009202;28;20091;-66
2023/02/19 13:28:30;;;;;;;8.13;1.83;;;;;;;;;;21008615;28;20053;-72
2023/02/19 13:38:37;;;;;;;10.57;1.48;;;;;;;;;;21018653;28;20089;-71
2023/02/19 13:48:40;;;;;;;5.05;1.40;;;;;;;;;;21074310;28;20051;-71
2023/02/19 13:58:52;;;;;;;8.90;1.70;;;;;;;;;;21091371;28;20043;-71
2023/02/19 14:08:56;;;;;;;7.22;1.70;;;;;;;;;;21088589;28;20052;-71
2023/02/19 14:18:59;;;;;;;6.28;1.60;;;;;;;;;;21088735;28;20405;-71
2023/02/19 14:29:02;;;;;;;6.35;1.52;;;;;;;;;;21088505;28;20403;-71
2023/02/19 14:39:07;;;;;;;4.45;1.17;;;;;;;;;;21054859;28;20508;-71
2023/02/19 14:49:22;;;;;;;3.63;1.27;;;;;;;;;;21003629;28;20060;-71
2023/02/19 14:59:26;;;;;;;4.28;1.30;;;;;;;;;;21001716;28;20049;-69
2023/02/19 15:09:36;;;;;;;4.93;1.40;;;;;;;;;;21001653;28;20421;-70
2023/02/19 15:19:39;;;;;;;6.88;1.40;;;;;;;;;;21001763;28;20473;-67
2023/02/19 15:29:44;;;;;;;7.38;1.80;;;;;;;;;;20999760;28;20410;-70
2023/02/19 15:39:48;;;;;;;5.80;1.80;;;;;;;;;;21019889;28;20434;-70
2023/02/19 15:50:05;;;;;;;5.72;1.90;;;;;;;;;;21082941;28;20460;-70
2023/02/19 16:00:10;;;;;;;4.63;1.85;;;;;;;;;;21082260;28;20471;-70
2023/02/19 16:10:21;;;;;;;5.80;1.33;;;;;;;;;;21080844;28;20048;-66
2023/02/19 16:20:28;;;;;;;5.90;1.50;;;;;;;;;;21080499;28;20401;-68
2023/02/19 16:30:33;;;;;;;6.88;1.33;;;;;;;;;;21081248;28;20076;-71
2023/02/19 16:40:44;;;;;;;13.65;2.25;;;;;;;;;;21043158;28;20063;-67
2023/02/19 16:50:47;;;;;;;6.10;1.80;;;;;;;;;;21011627;28;20139;-69
2023/02/19 17:00:51;;;;;;;6.53;1.92;;;;;;;;;;20993118;28;20103;-70
2023/02/19 17:10:54;;;;;;;6.43;1.83;;;;;;;;;;21011108;28;20052;-69
2023/02/19 17:21:06;;;;;;;7.55;2.05;;;;;;;;;;21010848;28;20418;-70
2023/02/19 17:31:12;;;;;;;9.63;2.35;;;;;;;;;;21011617;28;20474;-66
2023/02/19 17:41:14;;;;;;;9.38;2.65;;;;;;;;;;21007533;28;20056;-70
2023/02/19 17:51:16;;;;;;;11.20;2.75;;;;;;;;;;21007139;28;20052;-69
2023/02/19 18:01:18;;;;;;;9.75;3.47;;;;;;;;;;21007007;28;20099;-69
2023/02/19 18:11:21;;;;;;;9.80;3.67;;;;;;;;;;21006156;28;20406;-69
2023/02/19 18:21:24;;;;;;;11.43;3.30;;;;;;;;;;21006776;28;20449;-69
2023/02/19 18:31:26;;;;;;;9.38;2.80;;;;;;;;;;21004289;28;20059;-69
2023/02/19 18:41:28;;;;;;;9.68;3.22;;;;;;;;;;21002450;28;20056;-69
2023/02/19 18:51:30;;;;;;;11.50;4.32;;;;;;;;;;21001898;28;20159;-69
2023/02/19 19:01:32;;;;;;;11.00;4.57;;;;;;;;;;21002372;28;20051;-71
2023/02/19 19:11:36;;;;;;;18.70;7.10;;;;;;;;;;21001175;28;20478;-68
2023/02/19 19:21:38;;;;;;;16.13;4.13;;;;;;;;;;21001393;28;20124;-68
2023/02/19 19:31:40;;;;;;;15.48;4.15;;;;;;;;;;21000554;28;20127;-70
2023/02/19 19:41:42;;;;;;;10.15;3.75;;;;;;;;;;20998543;28;20052;-69
2023/02/19 19:51:44;;;;;;;11.88;3.60;;;;;;;;;;20997514;28;20049;-70
2023/02/19 20:01:56;;;;;;;14.00;3.50;;;;;;;;;;20997561;28;20478;-68
2023/02/19 20:11:59;;;;;;;11.32;2.85;;;;;;;;;;20996866;28;20398;-69
2023/02/19 20:22:01;;;;;;;10.27;3.08;;;;;;;;;;20997183;28;20048;-69
2023/02/19 20:32:04;;;;;;;7.95;3.05;;;;;;;;;;20996235;28;20133;-69
2023/02/19 20:42:06;;;;;;;8.15;3.22;;;;;;;;;;20996200;28;20060;-74
2023/02/19 20:52:08;;;;;;;11.40;3.55;;;;;;;;;;20996182;28;20059;-69
2023/02/19 21:02:28;;;;;;;17.00;5.40;;;;;;;;;;20993796;28;20048;-68
2023/02/19 21:12:32;;;;;;;8.00;3.03;;;;;;;;;;20994452;28;20457;-69
2023/02/19 21:22:34;;;;;;;14.27;4.93;;;;;;;;;;20994742;28;20049;-69
2023/02/19 21:32:36;;;;;;;17.67;5.70;;;;;;;;;;21009304;28;20067;-70
2023/02/19 21:42:39;;;;;;;21.95;6.22;;;;;;;;;;21007299;28;20422;-70
2023/02/19 21:52:40;;;;;;;13.57;4.45;;;;;;;;;;21011065;28;20041;-68
2023/02/19 22:02:42;;;;;;;13.32;4.10;;;;;;;;;;21007741;28;20041;-68
2023/02/19 22:12:43;;;;;;;16.35;5.10;;;;;;;;;;21006607;28;20060;-68
2023/02/19 22:22:44;;;;;;;17.75;6.72;;;;;;;;;;21004635;28;20572;-69
2023/02/19 22:32:45;;;;;;;11.75;5.03;;;;;;;;;;21006063;28;20056;-70
2023/02/19 22:42:46;;;;;;;14.82;3.83;;;;;;;;;;21003089;28;20048;-69
2023/02/19 22:52:48;;;;;;;13.40;2.83;;;;;;;;;;21003527;28;20192;-69
2023/02/19 23:02:50;;;;;;;10.18;3.30;;;;;;;;;;21001381;28;20083;-69
2023/02/19 23:12:52;;;;;;;11.93;2.90;;;;;;;;;;21003010;28;20048;-68
2023/02/19 23:22:53;;;;;;;12.93;2.78;;;;;;;;;;21001712;28;20056;-69
2023/02/19 23:32:54;;;;;;;8.77;2.58;;;;;;;;;;20983671;28;20055;-70
2023/02/19 23:42:57;;;;;;;8.40;1.98;;;;;;;;;;20998788;28;20056;-70
2023/02/19 23:52:59;;;;;;;12.60;2.17;;;;;;;;;;20997125;28;20106;-70
